createdAt,value
2022-08-03T00:02:42.821Z,4.40
2022-08-03T00:06:04.060Z,4.30
2022-08-03T00:09:10.884Z,4.40
2022-08-03T00:12:14.970Z,4.20
2022-08-03T00:15:19.046Z,4.37
2022-08-03T00:18:24.380Z,4.70
2022-08-03T00:21:28.099Z,4.20
2022-08-03T00:24:32.375Z,3.90
2022-08-03T00:27:36.028Z,4.20
2022-08-03T00:30:39.802Z,4.33
2022-08-03T00:33:59.388Z,3.93
2022-08-03T00:37:06.864Z,4.27
2022-08-03T00:40:13.754Z,4.10
2022-08-03T00:43:18.750Z,3.60
2022-08-03T00:46:22.975Z,4.00
2022-08-03T00:49:29.010Z,4.30
2022-08-03T00:52:32.749Z,4.20
2022-08-03T00:55:38.156Z,4.10
2022-08-03T00:58:41.984Z,3.83
2022-08-03T01:01:45.769Z,3.77
2022-08-03T01:04:50.794Z,4.03
2022-08-03T01:08:07.059Z,4.03
2022-08-03T01:11:20.796Z,4.50
2022-08-03T01:14:45.458Z,4.10
2022-08-03T01:17:58.460Z,4.10
2022-08-03T01:21:12.392Z,4.50
2022-08-03T01:24:36.283Z,4.00
2022-08-03T01:27:56.002Z,4.30
2022-08-03T01:31:08.538Z,4.77
2022-08-03T01:34:17.277Z,4.27
2022-08-03T01:37:29.895Z,4.47
2022-08-03T01:40:40.675Z,4.87
2022-08-03T01:44:26.828Z,4.33
2022-08-03T01:47:21.187Z,4.33
2022-08-03T01:50:30.465Z,3.73
2022-08-03T01:53:36.042Z,5.00
2022-08-03T01:56:42.372Z,4.30
2022-08-03T01:59:50.200Z,4.47
2022-08-03T02:02:58.668Z,4.27
2022-08-03T02:06:59.691Z,3.93
2022-08-03T02:09:30.815Z,4.90
2022-08-03T02:12:38.182Z,4.63
2022-08-03T02:15:45.033Z,4.40
2022-08-03T02:18:50.766Z,4.67
2022-08-03T02:22:01.335Z,5.13
2022-08-03T02:25:06.577Z,5.00
2022-08-03T02:28:16.402Z,5.13
2022-08-03T02:31:25.668Z,5.37
2022-08-03T02:34:34.997Z,5.07
2022-08-03T02:37:49.783Z,4.93
2022-08-03T02:40:59.265Z,5.50
2022-08-03T02:44:09.619Z,5.23
2022-08-03T02:47:15.652Z,5.10
2022-08-03T02:50:24.462Z,5.17
2022-08-03T02:53:30.675Z,4.70
2022-08-03T02:56:35.662Z,4.63
2022-08-03T02:59:41.439Z,5.00
2022-08-03T03:02:47.047Z,4.83
2022-08-03T03:05:57.767Z,4.90
2022-08-03T03:09:03.630Z,4.80
2022-08-03T03:12:10.324Z,5.77
2022-08-03T03:15:14.053Z,5.67
2022-08-03T03:18:22.553Z,5.13
2022-08-03T03:21:30.417Z,5.10
2022-08-03T03:24:36.115Z,5.40
2022-08-03T03:27:41.144Z,5.33
2022-08-03T03:30:45.551Z,5.13
2022-08-03T03:33:59.357Z,6.70
2022-08-03T03:37:05.200Z,6.37
2022-08-03T03:40:10.597Z,6.60
2022-08-03T03:43:14.935Z,6.20
2022-08-03T03:46:19.150Z,6.97
2022-08-03T03:49:23.140Z,6.93
2022-08-03T03:52:28.343Z,6.50
2022-08-03T03:55:32.385Z,8.13
2022-08-03T03:58:36.048Z,6.70
2022-08-03T04:01:40.936Z,7.43
2022-08-03T04:05:01.866Z,7.30
2022-08-03T04:08:28.108Z,8.63
2022-08-03T04:11:39.175Z,8.60
2022-08-03T04:14:45.366Z,8.40
2022-08-03T04:17:52.027Z,8.40
2022-08-03T04:21:00.461Z,9.40
2022-08-03T04:24:09.761Z,10.67
2022-08-03T04:27:17.793Z,11.80
2022-08-03T04:30:24.319Z,13.07
2022-08-03T04:33:30.885Z,11.77
2022-08-03T04:36:41.227Z,11.53
2022-08-03T04:39:50.478Z,11.43
2022-08-03T04:42:56.982Z,10.47
2022-08-03T04:46:02.328Z,11.37
2022-08-03T04:49:07.585Z,12.20
2022-08-03T04:52:12.277Z,10.97
2022-08-03T04:55:28.827Z,10.77
2022-08-03T04:58:32.475Z,10.73
2022-08-03T05:01:36.181Z,10.40
2022-08-03T05:04:41.661Z,10.67
2022-08-03T05:07:45.816Z,9.60
2022-08-03T05:10:52.436Z,8.80
2022-08-03T05:13:56.847Z,8.37
2022-08-03T05:17:00.643Z,7.90
2022-08-03T05:20:06.180Z,7.67
2022-08-03T05:23:09.855Z,6.93
2022-08-03T05:26:14.933Z,7.03
2022-08-03T05:29:18.713Z,7.23
2022-08-03T05:32:22.549Z,7.03
2022-08-03T05:35:57.603Z,6.67
2022-08-03T05:38:51.385Z,5.70
2022-08-03T05:41:56.676Z,5.83
2022-08-03T05:45:00.396Z,5.80
2022-08-03T05:48:04.221Z,5.37
2022-08-03T05:51:11.391Z,5.00
2022-08-03T05:54:15.704Z,5.00
2022-08-03T05:57:20.743Z,4.33
2022-08-03T06:00:25.731Z,4.53
2022-08-03T06:03:29.507Z,4.40
2022-08-03T06:06:33.156Z,4.40
2022-08-03T06:10:33.940Z,4.30
2022-08-03T06:13:01.788Z,4.80
2022-08-03T06:16:06.147Z,4.00
2022-08-03T06:19:09.848Z,4.00
2022-08-03T06:22:13.591Z,3.70
2022-08-03T06:25:21.200Z,3.70
2022-08-03T06:31:50.195Z,3.83
2022-08-03T06:34:53.912Z,3.80
2022-08-03T06:37:57.655Z,3.83
2022-08-03T06:41:01.292Z,3.53
2022-08-03T06:44:07.015Z,3.40
2022-08-03T06:47:10.777Z,4.03
2022-08-03T06:50:17.878Z,3.70
2022-08-03T06:53:22.144Z,3.23
2022-08-03T06:56:25.810Z,3.70
2022-08-03T07:00:07.337Z,3.30
2022-08-03T07:02:58.077Z,3.03
2022-08-03T07:06:02.329Z,3.63
2022-08-03T07:09:07.400Z,3.10
2022-08-03T07:12:11.284Z,3.00
2022-08-03T07:15:20.659Z,2.83
2022-08-03T07:18:42.290Z,2.80
2022-08-03T07:21:46.075Z,2.43
2022-08-03T07:24:49.739Z,2.57
2022-08-03T07:27:53.429Z,2.60
2022-08-03T07:30:59.533Z,2.67
2022-08-03T07:34:03.164Z,2.83
2022-08-03T07:37:06.915Z,2.50
2022-08-03T07:40:11.063Z,2.47
2022-08-03T07:43:14.770Z,2.70
2022-08-03T07:46:20.358Z,2.83
2022-08-03T07:49:24.152Z,3.00
2022-08-03T07:52:45.437Z,2.67
2022-08-03T07:55:49.127Z,2.83
2022-08-03T07:58:52.864Z,2.47
2022-08-03T08:01:58.053Z,2.93
2022-08-03T08:05:05.514Z,2.50
2022-08-03T08:08:09.713Z,2.60
2022-08-03T08:11:13.508Z,2.73
2022-08-03T08:14:17.219Z,2.40
2022-08-03T08:17:22.309Z,2.50
2022-08-03T08:20:31.521Z,2.63
2022-08-03T08:23:42.824Z,2.40
2022-08-03T08:26:48.064Z,2.40
2022-08-03T08:29:55.250Z,2.00
2022-08-03T08:33:02.564Z,2.17
2022-08-03T08:36:06.571Z,2.03
2022-08-03T08:39:10.234Z,2.20
2022-08-03T08:42:13.871Z,2.23
2022-08-03T08:45:18.860Z,2.40
2022-08-03T08:48:27.307Z,2.10
2022-08-03T08:51:50.490Z,2.10
2022-08-03T08:55:04.028Z,1.90
2022-08-03T08:58:10.780Z,2.00
2022-08-03T09:01:14.509Z,2.60
2022-08-03T09:04:20.038Z,2.33
2022-08-03T09:07:23.871Z,2.27
2022-08-03T09:10:27.499Z,2.20
2022-08-03T09:13:31.533Z,2.20
2022-08-03T09:16:36.517Z,2.23
2022-08-03T09:19:42.611Z,1.80
2022-08-03T09:23:44.629Z,1.97
2022-08-03T09:26:36.051Z,1.80
2022-08-03T09:29:40.419Z,1.77
2022-08-03T09:32:46.361Z,2.07
2022-08-03T09:35:54.148Z,1.63
2022-08-03T09:39:05.914Z,1.80
2022-08-03T09:42:14.731Z,2.00
2022-08-03T09:45:30.075Z,1.70
2022-08-03T09:48:35.007Z,2.07
2022-08-03T09:52:33.019Z,1.90
2022-08-03T09:56:31.595Z,1.77
2022-08-03T09:58:34.333Z,2.33
2022-08-03T10:01:39.708Z,1.70
2022-08-03T10:04:51.022Z,1.87
2022-08-03T10:07:56.851Z,2.30
2022-08-03T10:11:01.065Z,1.97
2022-08-03T10:14:06.730Z,2.10
2022-08-03T10:17:11.404Z,1.83
2022-08-03T10:20:15.123Z,2.00
2022-08-03T10:23:22.273Z,2.20
2022-08-03T10:26:29.998Z,1.83
2022-08-03T10:29:39.824Z,1.80
2022-08-03T10:32:49.652Z,1.90
2022-08-03T10:35:58.485Z,1.80
2022-08-03T10:39:05.019Z,1.80
2022-08-03T10:42:22.024Z,2.00
2022-08-03T10:45:29.209Z,1.50
2022-08-03T10:48:35.594Z,1.90
2022-08-03T10:51:40.367Z,2.10
2022-08-03T10:55:07.372Z,1.73
2022-08-03T10:58:11.687Z,1.90
2022-08-03T11:01:15.689Z,2.37
2022-08-03T11:04:21.335Z,2.10
2022-08-03T11:07:27.668Z,1.90
2022-08-03T11:10:33.948Z,1.50
2022-08-03T11:13:37.628Z,2.20
2022-08-03T11:16:45.292Z,2.03
2022-08-03T11:19:57.011Z,1.73
2022-08-03T11:23:02.971Z,2.03
2022-08-03T11:26:18.863Z,1.90
2022-08-03T11:29:30.191Z,1.90
2022-08-03T11:32:59.073Z,2.30
2022-08-03T11:36:03.975Z,1.80
2022-08-03T11:39:17.400Z,2.10
2022-08-03T11:42:48.138Z,1.97
2022-08-03T11:46:00.034Z,2.30
2022-08-03T11:49:11.007Z,2.00
2022-08-03T11:52:15.059Z,2.40
2022-08-03T11:55:22.211Z,1.87
2022-08-03T11:59:17.420Z,1.90
2022-08-03T12:01:52.068Z,1.90
2022-08-03T12:05:00.712Z,1.90
2022-08-03T12:08:06.856Z,2.03
2022-08-03T12:11:13.277Z,2.77
2022-08-03T12:14:50.666Z,2.20
2022-08-03T12:17:44.396Z,1.90
2022-08-03T12:20:49.895Z,1.70
2022-08-03T12:24:00.481Z,2.17
2022-08-03T12:27:04.452Z,2.57
2022-08-03T12:30:12.007Z,2.27
2022-08-03T12:33:22.675Z,2.20
2022-08-03T12:36:26.383Z,1.87
2022-08-03T12:39:31.510Z,2.20
2022-08-03T12:42:37.697Z,1.80
2022-08-03T12:45:44.856Z,1.50
2022-08-03T12:49:04.551Z,1.67
2022-08-03T12:52:08.793Z,2.40
2022-08-03T12:55:22.363Z,2.00
2022-08-03T12:58:35.017Z,2.27
2022-08-03T13:01:55.128Z,2.03
2022-08-03T13:05:00.229Z,1.70
2022-08-03T13:08:04.477Z,2.23
2022-08-03T13:11:21.693Z,1.73
2022-08-03T13:14:25.440Z,2.10
2022-08-03T13:17:30.556Z,1.87
2022-08-03T13:20:34.927Z,2.10
2022-08-03T13:23:38.675Z,2.03
2022-08-03T13:26:42.309Z,1.70
2022-08-03T13:29:46.327Z,2.00
2022-08-03T13:32:51.553Z,1.97
2022-08-03T13:35:55.615Z,2.40
2022-08-03T13:38:59.264Z,2.00
2022-08-03T13:42:03.259Z,1.53
2022-08-03T13:45:27.562Z,1.90
2022-08-03T13:48:35.786Z,1.73
2022-08-03T13:51:41.081Z,1.60
2022-08-03T13:54:46.278Z,1.90
2022-08-03T13:58:04.489Z,1.70
2022-08-03T14:01:11.051Z,1.40
2022-08-03T14:04:22.247Z,2.07
2022-08-03T14:07:26.324Z,2.00
2022-08-03T14:10:30.096Z,1.90
2022-08-03T14:13:33.797Z,1.50
2022-08-03T14:16:38.114Z,1.83
2022-08-03T14:19:53.207Z,1.60
2022-08-03T14:22:57.784Z,1.83
2022-08-03T14:26:01.567Z,1.73
2022-08-03T14:29:06.045Z,2.20
2022-08-03T14:32:13.154Z,2.07
2022-08-03T14:35:19.010Z,1.77
2022-08-03T14:38:23.281Z,1.93
2022-08-03T14:41:27.034Z,1.80
2022-08-03T14:44:31.040Z,1.60
2022-08-03T14:47:36.494Z,1.73
2022-08-03T14:51:00.176Z,2.17
2022-08-03T14:54:03.852Z,1.93
2022-08-03T14:57:08.172Z,1.83
2022-08-03T15:00:13.599Z,1.97
2022-08-03T15:03:20.477Z,1.83
2022-08-03T15:06:25.648Z,2.00
2022-08-03T15:09:29.333Z,1.60
2022-08-03T15:12:33.023Z,2.57
2022-08-03T15:15:36.682Z,2.10
2022-08-03T15:18:40.368Z,2.10
2022-08-03T15:21:47.300Z,2.20
2022-08-03T15:24:51.623Z,1.97
2022-08-03T15:28:04.075Z,2.20
2022-08-03T15:31:08.377Z,2.30
2022-08-03T15:34:12.815Z,2.30
2022-08-03T15:37:17.836Z,2.33
2022-08-03T15:40:21.661Z,1.60
2022-08-03T15:43:25.969Z,2.67
2022-08-03T15:46:30.202Z,2.03
2022-08-03T15:49:34.015Z,2.00
2022-08-03T15:52:39.589Z,2.13
2022-08-03T15:55:43.827Z,2.20
2022-08-03T15:59:04.608Z,2.47
2022-08-03T16:02:12.018Z,1.80
2022-08-03T16:05:15.676Z,1.90
2022-08-03T16:08:22.164Z,2.10
2022-08-03T16:11:26.727Z,2.23
2022-08-03T16:14:32.085Z,2.17
2022-08-03T16:17:37.154Z,2.10
2022-08-03T16:20:41.807Z,2.30
2022-08-03T16:23:47.336Z,2.00
2022-08-03T16:26:51.236Z,1.50
2022-08-03T16:29:54.890Z,1.90
2022-08-03T16:32:58.656Z,2.77
2022-08-03T16:36:02.684Z,1.93
2022-08-03T16:39:07.874Z,1.90
2022-08-03T16:42:11.647Z,2.10
2022-08-03T16:45:15.478Z,2.40
2022-08-03T16:48:21.220Z,2.07
2022-08-03T16:51:24.859Z,1.80
2022-08-03T16:54:52.850Z,2.17
2022-08-03T16:57:59.998Z,1.80
2022-08-03T17:01:20.910Z,2.03
2022-08-03T17:04:27.004Z,2.30
2022-08-03T17:07:30.591Z,1.80
2022-08-03T17:10:35.637Z,1.60
2022-08-03T17:13:40.357Z,2.37
2022-08-03T17:16:53.055Z,2.43
2022-08-03T17:19:59.630Z,2.47
2022-08-03T17:23:34.422Z,1.83
2022-08-03T17:26:44.805Z,1.73
2022-08-03T17:29:52.107Z,2.20
2022-08-03T17:32:57.704Z,1.87
2022-08-03T17:36:02.122Z,2.37
2022-08-03T17:39:07.779Z,2.17
2022-08-03T17:42:31.079Z,1.80
2022-08-03T17:45:52.562Z,1.83
2022-08-03T17:48:58.731Z,1.93
2022-08-03T17:52:06.690Z,2.00
2022-08-03T17:55:56.723Z,1.93
2022-08-03T17:59:08.248Z,1.80
2022-08-03T18:02:55.099Z,1.63
2022-08-03T18:06:09.005Z,1.93
2022-08-03T18:10:05.848Z,1.93
2022-08-03T18:12:54.651Z,2.67
2022-08-03T18:16:04.473Z,2.13
2022-08-03T18:19:14.474Z,2.23
2022-08-03T18:22:25.036Z,1.63
2022-08-03T18:25:45.716Z,2.50
2022-08-03T18:28:55.767Z,2.27
2022-08-03T18:32:06.856Z,2.53
2022-08-03T18:35:14.514Z,3.10
2022-08-03T18:38:20.351Z,2.23
2022-08-03T18:41:33.303Z,2.43
2022-08-03T18:44:53.198Z,2.60
2022-08-03T18:48:12.418Z,2.83
2022-08-03T18:51:33.855Z,2.13
2022-08-03T18:55:02.715Z,2.50
2022-08-03T18:58:33.981Z,2.67
2022-08-03T19:02:00.914Z,3.63
2022-08-03T19:05:11.420Z,3.37
2022-08-03T19:08:26.093Z,3.03
2022-08-03T19:12:14.016Z,3.53
2022-08-03T19:15:12.476Z,4.20
2022-08-03T19:18:18.852Z,4.50
2022-08-03T19:21:24.705Z,4.30
2022-08-03T19:24:30.540Z,4.80
2022-08-03T19:27:35.972Z,5.60
2022-08-03T19:30:46.244Z,5.47
2022-08-03T19:33:59.078Z,6.33
2022-08-03T19:37:05.506Z,5.63
2022-08-03T19:40:12.377Z,6.90
2022-08-03T19:43:23.496Z,7.60
2022-08-03T19:46:31.753Z,6.57
2022-08-03T19:50:04.659Z,7.70
2022-08-03T19:53:11.801Z,7.97
2022-08-03T19:56:20.792Z,7.20
2022-08-03T19:59:28.529Z,8.57
2022-08-03T20:02:34.805Z,7.77
2022-08-03T20:05:45.052Z,8.20
2022-08-03T20:08:58.916Z,10.20
2022-08-03T20:12:02.789Z,9.33
2022-08-03T20:15:31.054Z,9.10
2022-08-03T20:22:01.048Z,10.23
2022-08-03T20:25:11.496Z,11.20
2022-08-03T20:28:27.379Z,11.43
2022-08-03T20:31:36.278Z,10.70
2022-08-03T20:34:40.421Z,10.73
2022-08-03T20:37:45.162Z,10.10
2022-08-03T20:40:50.624Z,10.70
2022-08-03T20:43:54.443Z,10.67
2022-08-03T20:47:00.789Z,10.07
2022-08-03T20:50:07.779Z,12.00
2022-08-03T20:53:12.229Z,12.30
2022-08-03T20:56:18.306Z,11.87
2022-08-03T20:59:22.801Z,10.93
2022-08-03T21:02:30.139Z,12.23
2022-08-03T21:09:07.916Z,11.20
2022-08-03T21:12:20.042Z,11.40
2022-08-03T21:13:03.878Z,10.93
2022-08-03T21:13:08.028Z,11.37
2022-08-03T21:16:06.939Z,12.17
2022-08-03T21:19:04.074Z,11.73
2022-08-03T21:22:10.379Z,10.60
2022-08-03T21:25:17.212Z,11.80
2022-08-03T21:28:27.425Z,10.43
2022-08-03T21:31:31.447Z,11.77
2022-08-03T21:34:37.470Z,11.13
2022-08-03T21:37:43.908Z,11.03
2022-08-03T21:40:51.715Z,12.30
2022-08-03T21:43:56.750Z,10.93
2022-08-03T21:47:03.356Z,10.63
2022-08-03T21:50:12.168Z,11.87
2022-08-03T21:53:17.440Z,11.03
2022-08-03T21:56:23.514Z,11.87
2022-08-03T21:59:29.290Z,11.83
2022-08-03T22:02:35.762Z,12.67
2022-08-03T22:05:43.459Z,13.13
2022-08-03T22:08:49.371Z,14.03
2022-08-03T22:11:54.741Z,13.43
2022-08-03T22:15:02.497Z,13.77
2022-08-03T22:18:07.100Z,13.53
2022-08-03T22:21:16.748Z,16.23
2022-08-03T22:24:36.442Z,14.37
2022-08-03T22:27:42.816Z,15.93
2022-08-03T22:30:50.233Z,15.17
2022-08-03T22:33:55.224Z,16.50
2022-08-03T22:37:06.153Z,16.50
2022-08-03T22:40:15.129Z,17.63
2022-08-03T22:43:22.751Z,15.83
2022-08-03T22:46:32.164Z,17.37
2022-08-03T22:49:39.004Z,17.20
2022-08-03T22:52:45.660Z,19.73
2022-08-03T22:55:50.508Z,16.90
2022-08-03T22:58:54.148Z,17.43
2022-08-03T23:02:20.073Z,18.33
2022-08-03T23:06:02.020Z,19.23
2022-08-03T23:08:54.805Z,19.03
2022-08-03T23:12:02.168Z,18.20
2022-08-03T23:15:09.899Z,18.50
2022-08-03T23:18:15.659Z,19.00
2022-08-03T23:21:53.551Z,17.93
2022-08-03T23:24:45.134Z,16.87
2022-08-03T23:28:05.716Z,18.60
2022-08-03T23:31:10.155Z,18.83
2022-08-03T23:34:36.951Z,19.67
2022-08-03T23:38:03.978Z,19.53
2022-08-03T23:41:06.392Z,18.77
2022-08-03T23:44:10.546Z,19.10
2022-08-03T23:47:15.186Z,18.93
2022-08-03T23:50:20.751Z,18.33
2022-08-03T23:53:42.199Z,19.80
2022-08-03T23:57:00.592Z,19.87
